Time;durP1;ratioP1;P1;durP2;ratioP2;P2;SDS_P1;SDS_P2;PMS_P1;PMS_P2;Temp;Humidity;BMP_temperature;BMP_pressure;BME280_temperature;BME280_humidity;BME280_pressure;Samples;Min_cycle;Max_cycle;Signal;HPM_P1;HPM_P2
2022/10/27 00:03:41;;;;;;;4.32;1.00;;;;;;;15.94;51.14;101150.69;10528248;28;20275;-81
2022/10/27 00:09:03;;;;;;;8.60;1.17;;;;;;;15.69;52.39;101152.66;10541886;28;20214;-82
2022/10/27 00:14:25;;;;;;;1.52;0.95;;;;;;;15.77;51.63;101154.56;10541677;28;20210;-81
2022/10/27 00:19:47;;;;;;;2.53;1.17;;;;;;;15.77;51.48;101153.72;10513073;28;20198;-81
2022/10/27 00:25:03;;;;;;;6.05;1.27;;;;;;;16.12;50.77;101146.47;10524204;28;20248;-81
2022/10/27 00:30:25;;;;;;;4.05;1.38;;;;;;;16.06;51.02;101159.25;10539405;28;20279;-82
2022/10/27 00:35:47;;;;;;;6.35;1.75;;;;;;;15.94;50.99;101170.59;10526409;28;20236;-82
2022/10/27 00:41:24;;;;;;;3.38;1.48;;;;;;;15.85;51.47;101165.03;10516933;28;20194;-82
2022/10/27 00:46:46;;;;;;;4.68;1.45;;;;;;;14.94;54.56;101176.53;10542009;28;20187;-81
2022/10/27 00:52:21;;;;;;;6.90;1.53;;;;;;;15.16;54.15;101176.19;10541377;28;20614;-81
2022/10/27 00:57:44;;;;;;;5.10;1.23;;;;;;;15.45;52.88;101175.28;10497130;28;20199;-81
2022/10/27 01:03:09;;;;;;;3.95;1.02;;;;;;;15.30;53.46;101176.75;10524941;28;20251;-81
2022/10/27 01:08:31;;;;;;;5.13;1.57;;;;;;;15.11;53.82;101182.06;10526781;28;20222;-82
2022/10/27 01:13:53;;;;;;;5.25;1.52;;;;;;;14.94;54.59;101183.06;10540648;28;20210;-81
2022/10/27 01:19:54;;;;;;;3.28;1.50;;;;;;;14.78;54.89;101185.66;10540726;28;20660;-81
2022/10/27 01:25:46;;;;;;;6.10;1.88;;;;;;;15.07;54.29;101179.13;10540400;28;20595;-81
2022/10/27 01:31:10;;;;;;;3.87;1.23;;;;;;;15.57;52.77;101186.72;10521647;28;20572;-81
2022/10/27 01:36:36;;;;;;;4.83;1.40;;;;;;;16.23;50.54;101194.38;10542240;28;20217;-81
2022/10/27 01:42:09;;;;;;;5.55;1.23;;;;;;;16.11;50.47;101184.63;10526698;28;20533;-83
2022/10/27 01:47:31;;;;;;;4.47;1.17;;;;;;;15.46;52.38;101186.28;10505019;28;20602;-84
2022/10/27 01:52:53;;;;;;;6.38;1.30;;;;;;;15.15;53.39;101183.88;10513242;28;20226;-83
2022/10/27 01:58:27;;;;;;;4.70;1.23;;;;;;;14.64;55.24;101196.41;10540090;28;20244;-84
2022/10/27 02:03:54;;;;;;;2.63;1.10;;;;;;;14.53;55.95;101195.13;10532513;28;20190;-84
2022/10/27 02:09:41;;;;;;;4.07;1.30;;;;;;;14.48;55.83;101198.16;10526610;28;20222;-83
2022/10/27 02:15:07;;;;;;;2.85;1.10;;;;;;;14.60;55.54;101195.41;10538220;28;20198;-83
2022/10/27 02:20:33;;;;;;;4.40;1.08;;;;;;;14.57;56.25;101190.44;10526216;28;20212;-84
2022/10/27 02:26:05;;;;;;;5.07;1.20;;;;;;;15.28;53.70;101184.78;10515424;28;20220;-83
2022/10/27 02:31:32;;;;;;;2.35;0.90;;;;;;;15.04;54.23;101193.16;10527223;28;20226;-84
2022/10/27 02:36:54;;;;;;;3.53;1.27;;;;;;;15.03;54.07;101197.19;10545519;28;20194;-84
2022/10/27 02:42:16;;;;;;;3.50;1.53;;;;;;;15.43;53.18;101200.34;10505836;28;20194;-83
2022/10/27 02:47:38;;;;;;;2.25;1.17;;;;;;;15.06;53.70;101196.50;10503447;28;20207;-83
2022/10/27 02:53:00;;;;;;;3.28;1.02;;;;;;;14.91;54.29;101206.44;10544531;28;20259;-83
2022/10/27 02:58:22;;;;;;;4.22;1.25;;;;;;;15.16;53.71;101198.91;10545379;28;20194;-83
2022/10/27 03:03:44;;;;;;;1.58;0.82;;;;;;;15.07;53.72;101201.00;10537630;28;20199;-83
2022/10/27 03:09:07;;;;;;;4.80;1.40;;;;;;;14.67;54.95;101209.06;10540632;28;20271;-84
2022/10/27 03:14:30;;;;;;;5.80;1.30;;;;;;;14.32;56.26;101200.75;10544034;28;20214;-83
2022/10/27 03:19:52;;;;;;;2.50;0.93;;;;;;;14.74;55.12;101193.16;10531799;28;20247;-84
2022/10/27 03:24:58;;;;;;;5.20;1.23;;;;;;;14.27;56.73;101197.25;10539404;28;20225;-84
2022/10/27 03:30:20;;;;;;;4.38;1.23;;;;;;;13.39;59.34;101194.94;10487553;28;20230;-83
2022/10/27 03:35:42;;;;;;;3.53;0.90;;;;;;;13.83;57.87;101181.53;10482928;28;20507;-83
2022/10/27 03:41:04;;;;;;;4.53;1.00;;;;;;;14.24;56.69;101183.75;10468089;28;20199;-84
2022/10/27 03:46:26;;;;;;;5.17;0.73;;;;;;;14.32;56.17;101175.22;10484913;28;20194;-85
2022/10/27 03:51:49;;;;;;;2.97;1.02;;;;;;;14.15;57.33;101188.63;10486760;28;20264;-83
2022/10/27 03:57:12;;;;;;;4.67;1.30;;;;;;;13.94;57.66;101183.66;10501394;28;20221;-84
2022/10/27 04:02:34;;;;;;;5.23;1.03;;;;;;;13.86;57.79;101184.53;10500888;28;20249;-84
2022/10/27 04:07:56;;;;;;;3.75;0.90;;;;;;;13.61;58.55;101186.25;10499939;28;20236;-82
2022/10/27 04:13:18;;;;;;;7.22;1.50;;;;;;;13.91;57.44;101178.69;10474232;28;20685;-84
2022/10/27 04:18:40;;;;;;;5.77;1.43;;;;;;;13.73;58.46;101177.88;10505363;28;20195;-84
2022/10/27 04:23:54;;;;;;;4.57;0.90;;;;;;;14.11;57.07;101179.97;10480400;28;20530;-84
2022/10/27 04:29:16;;;;;;;2.45;0.85;;;;;;;13.95;57.22;101173.97;10528882;28;20267;-85
2022/10/27 04:34:38;;;;;;;4.07;0.97;;;;;;;13.76;57.53;101173.56;10565009;28;20691;-85
2022/10/27 04:40:01;;;;;;;2.10;1.23;;;;;;;13.59;58.10;101177.25;10529057;28;20201;-83
2022/10/27 04:45:23;;;;;;;2.17;0.90;;;;;;;14.37;56.43;101174.19;10583921;28;20203;-83
2022/10/27 04:50:45;;;;;;;3.73;1.03;;;;;;;13.65;58.50;101164.59;10581872;28;20193;-83
2022/10/27 04:56:07;;;;;;;1.52;0.85;;;;;;;13.84;57.59;101172.69;10550394;28;20209;-83
2022/10/27 05:01:29;;;;;;;3.00;0.83;;;;;;;13.91;57.63;101166.50;10563471;28;20194;-83
2022/10/27 05:06:51;;;;;;;3.47;1.20;;;;;;;13.96;57.04;101163.47;10527895;28;20201;-84
2022/10/27 05:12:13;;;;;;;2.00;0.77;;;;;;;14.15;56.64;101165.94;10567448;28;20209;-83
2022/10/27 05:17:36;;;;;;;2.03;1.00;;;;;;;14.51;55.26;101166.25;10557145;28;20502;-83
2022/10/27 05:22:57;;;;;;;3.85;1.25;;;;;;;14.51;54.92;101162.59;10533030;28;20254;-84
2022/10/27 05:28:20;;;;;;;8.83;1.60;;;;;;;13.83;56.99;101165.34;10560369;27;20229;-83
2022/10/27 05:33:42;;;;;;;7.73;1.27;;;;;;;14.24;55.92;101155.41;10532533;28;20210;-84
2022/10/27 05:38:59;;;;;;;5.43;1.40;;;;;;;14.28;55.90;101164.88;10558080;28;20198;-84
2022/10/27 05:44:21;;;;;;;15.23;2.97;;;;;;;14.42;55.00;101168.31;10564148;28;20186;-84
2022/10/27 05:49:43;;;;;;;12.83;1.93;;;;;;;14.16;55.78;101170.44;10546877;28;20262;-83
2022/10/27 05:55:05;;;;;;;4.07;1.07;;;;;;;13.93;56.24;101169.84;10564112;28;20602;-84
2022/10/27 06:00:33;;;;;;;15.20;2.40;;;;;;;13.91;56.13;101167.34;10563444;28;20219;-82
2022/10/27 06:05:56;;;;;;;3.93;1.47;;;;;;;14.65;53.98;101161.19;10562677;28;20272;-80
2022/10/27 06:11:18;;;;;;;15.23;2.43;;;;;;;14.49;54.62;101165.78;10543778;28;20222;-81
2022/10/27 06:16:40;;;;;;;10.77;1.90;;;;;;;15.22;52.19;101165.47;10558046;28;20262;-81
2022/10/27 06:22:02;;;;;;;9.93;1.93;;;;;;;15.14;52.41;101164.34;10568599;27;20186;-81
2022/10/27 06:27:24;;;;;;;10.77;1.70;;;;;;;14.88;52.78;101166.56;10550920;28;20222;-82
2022/10/27 06:32:46;;;;;;;5.87;1.57;;;;;;;14.63;53.19;101177.72;10562517;27;20222;-82
2022/10/27 06:38:08;;;;;;;8.07;1.63;;;;;;;14.55;53.63;101174.94;10568530;27;20279;-82
2022/10/27 06:43:30;;;;;;;9.73;2.03;;;;;;;14.15;54.80;101189.47;10577983;27;20223;-82
2022/10/27 06:48:52;;;;;;;8.52;2.10;;;;;;;14.24;53.70;101192.25;10532609;28;20205;-82
2022/10/27 06:54:04;;;;;;;18.70;3.40;;;;;;;14.02;54.96;101184.84;10566470;27;20246;-82
2022/10/27 06:59:26;;;;;;;21.20;4.30;;;;;;;14.39;53.88;101192.53;10593441;27;20193;-81
2022/10/27 07:04:48;;;;;;;14.18;2.92;;;;;;;14.59;53.45;101199.41;10576404;27;20661;-82
2022/10/27 07:10:10;;;;;;;26.80;4.67;;;;;;;14.76;53.37;101198.53;10559955;28;20270;-81
2022/10/27 07:15:35;;;;;;;31.67;5.27;;;;;;;14.38;54.08;101193.69;10542467;28;20222;-81
2022/10/27 07:20:57;;;;;;;21.00;3.83;;;;;;;14.63;53.23;101194.72;10577177;28;20251;-82
2022/10/27 07:26:19;;;;;;;31.00;5.57;;;;;;;15.06;51.83;101190.81;10557307;28;20182;-84
2022/10/27 07:31:45;;;;;;;24.65;3.92;;;;;;;14.87;52.67;101190.44;10549970;27;20656;-84
2022/10/27 07:37:07;;;;;;;9.47;1.70;;;;;;;14.94;52.21;101193.56;10560910;28;20205;-84
2022/10/27 07:42:29;;;;;;;7.53;1.00;;;;;;;15.13;52.03;101185.41;10586379;28;20186;-83
2022/10/27 07:47:54;;;;;;;3.85;1.10;;;;;;;14.87;52.93;101179.09;10547485;28;20185;-83
2022/10/27 07:53:16;;;;;;;5.03;1.00;;;;;;;15.39;51.40;101171.81;10553904;28;20213;-83
2022/10/27 07:58:38;;;;;;;6.10;0.80;;;;;;;15.49;51.22;101165.72;10551797;28;20224;-83
2022/10/27 08:04:00;;;;;;;4.80;0.73;;;;;;;15.25;51.71;101164.75;10538711;28;20217;-83
2022/10/27 08:09:22;;;;;;;9.97;1.30;;;;;;;15.69;51.11;101163.19;10553538;28;20217;-84
2022/10/27 08:14:44;;;;;;;1.85;0.90;;;;;;;16.02;49.87;101144.06;10571089;28;20209;-83
2022/10/27 08:20:07;;;;;;;4.38;1.00;;;;;;;16.12;50.01;101143.63;10561497;28;20482;-83
2022/10/27 08:25:30;;;;;;;1.23;0.35;;;;;;;16.19;49.69;101149.53;10553305;28;20182;-83
2022/10/27 08:30:52;;;;;;;3.93;0.63;;;;;;;16.73;48.36;101140.78;10556444;28;20262;-83
2022/10/27 08:36:15;;;;;;;11.45;1.98;;;;;;;16.70;47.87;101155.72;10543685;28;20263;-83
2022/10/27 08:41:43;;;;;;;3.60;0.68;;;;;;;16.95;47.89;101161.41;10551722;28;20197;-83
2022/10/27 08:47:19;;;;;;;2.80;0.80;;;;;;;16.81;48.22;101164.59;10572527;28;20254;-83
2022/10/27 08:52:47;;;;;;;9.32;0.73;;;;;;;17.08;47.00;101163.03;10561748;28;20221;-83
2022/10/27 08:58:37;;;;;;;2.08;0.50;;;;;;;17.24;46.81;101144.84;10558367;28;20223;-82
2022/10/27 09:04:09;;;;;;;2.13;0.52;;;;;;;17.45;46.41;101155.19;10522234;28;20244;-83
2022/10/27 09:09:45;;;;;;;2.10;0.40;;;;;;;17.53;45.93;101149.34;10543920;28;20618;-83
2022/10/27 09:15:16;;;;;;;4.22;0.60;;;;;;;17.97;45.12;101152.19;10571749;28;20262;-83
2022/10/27 09:20:48;;;;;;;6.93;0.32;;;;;;;17.47;46.12;101142.25;10577705;28;20185;-81
2022/10/27 09:26:12;;;;;;;2.35;0.50;;;;;;;17.13;46.77;101148.56;10577724;28;20182;-83
2022/10/27 09:31:37;;;;;;;4.00;0.60;;;;;;;17.58;45.38;101145.38;10577360;28;20222;-84
2022/10/27 09:37:00;;;;;;;4.85;0.50;;;;;;;17.08;46.22;101138.22;10559719;28;20269;-83
2022/10/27 09:42:23;;;;;;;2.05;0.60;;;;;;;18.44;43.69;101137.16;10566939;28;20189;-81
2022/10/27 09:47:48;;;;;;;5.38;0.50;;;;;;;17.98;44.35;101140.44;10565152;28;20182;-81
2022/10/27 09:53:41;;;;;;;3.45;0.68;;;;;;;18.37;43.45;101134.09;10558753;28;20456;-82
2022/10/27 09:59:04;;;;;;;6.50;0.45;;;;;;;17.50;44.26;101124.41;10588588;28;20228;-81
2022/10/27 10:04:26;;;;;;;4.25;0.63;;;;;;;17.58;44.38;101123.41;10568251;28;20191;-82
2022/10/27 10:10:19;;;;;;;2.28;0.35;;;;;;;17.53;44.30;101118.00;10559486;28;20222;-84
2022/10/27 10:15:42;;;;;;;3.72;0.57;;;;;;;18.52;42.21;101119.81;10577152;28;20632;-84
2022/10/27 10:21:07;;;;;;;1.92;0.60;;;;;;;18.60;42.41;101115.13;10566194;28;20267;-85
2022/10/27 10:26:29;;;;;;;2.42;0.40;;;;;;;18.16;42.68;101106.66;10571200;27;20275;-84
2022/10/27 10:31:53;;;;;;;8.38;0.82;;;;;;;18.36;42.68;101095.34;10571465;28;20222;-84
2022/10/27 10:37:36;;;;;;;5.55;0.50;;;;;;;18.66;42.43;101090.75;10553890;28;20266;-85
2022/10/27 10:43:13;;;;;;;4.70;0.57;;;;;;;18.50;42.80;101070.81;10548045;28;20670;-85
2022/10/27 10:48:45;;;;;;;5.15;0.47;;;;;;;18.54;42.81;101054.59;10564763;28;20240;-84
2022/10/27 10:54:15;;;;;;;7.43;1.02;;;;;;;19.07;41.96;101042.72;10578649;28;20263;-83
2022/10/27 10:59:42;;;;;;;2.92;0.90;;;;;;;18.73;42.74;101045.25;10554329;28;20250;-82
2022/10/27 11:05:13;;;;;;;4.88;0.60;;;;;;;19.17;42.26;101036.38;10564007;28;20186;-82
2022/10/27 11:10:26;;;;;;;2.40;0.40;;;;;;;18.88;42.65;101044.34;10559161;28;20281;-82
2022/10/27 11:15:58;;;;;;;2.42;0.60;;;;;;;19.29;41.62;101033.34;10565800;28;20298;-82
2022/10/27 11:21:34;;;;;;;4.00;0.82;;;;;;;19.24;42.04;101010.81;10574065;28;20663;-82
2022/10/27 11:27:06;;;;;;;3.85;1.00;;;;;;;18.96;42.42;101003.34;10568269;28;20182;-82
2022/10/27 11:32:34;;;;;;;5.55;0.70;;;;;;;19.31;41.65;101005.22;10568918;28;20194;-83
2022/10/27 11:38:22;;;;;;;4.68;0.80;;;;;;;19.25;41.95;101009.63;10588987;28;20574;-82
2022/10/27 11:43:35;;;;;;;5.25;0.82;;;;;;;19.03;42.50;100996.91;10567508;28;20251;-82
2022/10/27 11:49:05;;;;;;;6.75;1.00;;;;;;;19.81;41.14;100984.09;10565603;28;20271;-83
2022/10/27 11:54:27;;;;;;;43.03;19.63;;;;;;;19.89;41.13;100982.19;10571193;28;20232;-82
2022/10/27 12:00:01;;;;;;;1.15;0.65;;;;;;;19.83;40.62;100984.53;10585885;28;20235;-82
2022/10/27 12:05:46;;;;;;;4.20;1.35;;;;;;;20.20;39.78;100970.41;10571113;28;20582;-83
2022/10/27 12:11:24;;;;;;;3.03;0.88;;;;;;;21.12;37.81;100963.03;10568817;28;20286;-83
2022/10/27 12:16:51;;;;;;;5.93;1.10;;;;;;;20.61;38.83;100970.56;10557267;28;20272;-83
2022/10/27 12:22:19;;;;;;;4.32;1.17;;;;;;;20.47;38.70;100971.22;10554416;28;20198;-84
2022/10/27 12:27:46;;;;;;;8.43;1.08;;;;;;;20.56;38.61;100970.94;10577441;28;20651;-81
2022/10/27 12:33:21;;;;;;;8.75;1.13;;;;;;;20.61;38.48;100962.81;10561518;28;20249;-83
2022/10/27 12:39:05;;;;;;;7.90;1.10;;;;;;;21.39;37.53;100951.44;10558891;28;20224;-82
2022/10/27 12:44:55;;;;;;;5.88;0.98;;;;;;;20.49;38.51;100942.19;10555236;28;20201;-82
2022/10/27 12:50:29;;;;;;;4.30;0.93;;;;;;;20.53;38.24;100925.88;10579578;28;20254;-82
2022/10/27 12:56:02;;;;;;;6.63;0.80;;;;;;;20.72;38.54;100929.38;10563031;28;20218;-82
2022/10/27 13:01:48;;;;;;;5.40;0.77;;;;;;;20.84;38.21;100918.91;10561022;28;20579;-82
2022/10/27 13:08:02;;;;;;;3.70;0.98;;;;;;;21.02;37.79;100920.75;10566429;28;20663;-83
2022/10/27 13:13:39;;;;;;;4.65;1.25;;;;;;;21.54;36.49;100924.56;10478948;28;20275;-82
2022/10/27 13:19:27;;;;;;;5.32;1.17;;;;;;;20.85;37.87;100915.66;10562345;28;20690;-83
2022/10/27 13:24:45;;;;;;;3.25;1.20;;;;;;;21.24;36.85;100903.75;10558731;28;20232;-83
2022/10/27 13:30:15;;;;;;;1.67;0.47;;;;;;;21.81;36.86;100903.03;10570878;28;20254;-82
2022/10/27 13:35:37;;;;;;;4.78;1.17;;;;;;;22.34;35.74;100891.06;10571348;28;20213;-83
2022/10/27 13:40:59;;;;;;;5.22;0.85;;;;;;;21.00;37.33;100894.53;10546328;28;20263;-83
2022/10/27 13:47:00;;;;;;;6.65;1.00;;;;;;;20.91;38.00;100896.06;10558917;28;20194;-82
2022/10/27 13:52:24;;;;;;;4.38;1.15;;;;;;;21.51;36.76;100902.41;10575717;28;20206;-83
2022/10/27 13:58:02;;;;;;;4.03;0.90;;;;;;;21.33;37.34;100889.94;10571503;28;20190;-82
2022/10/27 14:03:35;;;;;;;3.65;0.85;;;;;;;21.36;37.42;100878.47;10587590;28;20247;-83
2022/10/27 14:09:18;;;;;;;4.28;1.00;;;;;;;21.09;37.91;100877.00;10581058;28;20552;-82
2022/10/27 14:14:40;;;;;;;3.40;0.95;;;;;;;20.62;38.63;100871.97;10569001;28;20204;-82
2022/10/27 14:20:06;;;;;;;5.72;1.70;;;;;;;21.04;38.46;100872.47;10553947;28;20189;-82
2022/10/27 14:25:29;;;;;;;10.57;2.40;;;;;;;20.99;38.48;100869.94;10563565;28;20221;-82
2022/10/27 14:31:13;;;;;;;7.80;2.30;;;;;;;21.24;38.84;100867.31;10567065;28;20286;-82
2022/10/27 14:36:37;;;;;;;5.53;1.65;;;;;;;20.02;40.80;100854.84;10529091;28;20257;-81
2022/10/27 14:42:02;;;;;;;5.28;2.05;;;;;;;20.73;39.42;100861.47;10534270;28;20271;-79
2022/10/27 14:47:24;;;;;;;4.57;1.63;;;;;;;20.69;39.60;100854.88;10547918;28;20197;-81
2022/10/27 14:52:42;;;;;;;6.43;1.75;;;;;;;20.52;40.52;100850.59;10568886;28;20251;-81
2022/10/27 14:58:19;;;;;;;8.70;1.83;;;;;;;19.80;41.95;100848.00;10561946;28;20248;-81
2022/10/27 15:03:41;;;;;;;11.18;2.50;;;;;;;20.10;41.63;100840.25;10550909;28;20235;-82
2022/10/27 15:09:03;;;;;;;6.43;1.67;;;;;;;20.33;41.70;100840.16;10533205;28;20221;-82
2022/10/27 15:14:27;;;;;;;3.97;1.42;;;;;;;19.63;42.94;100837.97;10547740;28;20561;-81
2022/10/27 15:19:54;;;;;;;10.25;2.50;;;;;;;20.38;41.78;100838.97;10544275;28;20202;-81
2022/10/27 15:25:17;;;;;;;18.48;7.28;;;;;;;20.20;42.14;100833.03;10526743;28;20652;-84
2022/10/27 15:30:41;;;;;;;28.40;18.05;;;;;;;20.72;40.71;100832.00;10516171;28;20643;-80
2022/10/27 15:36:15;;;;;;;6.82;3.25;;;;;;;20.34;41.41;100840.97;10556312;28;20241;-79
2022/10/27 15:41:45;;;;;;;10.20;2.55;;;;;;;20.15;42.02;100841.94;10530261;28;20247;-85
2022/10/27 15:47:37;;;;;;;9.55;2.25;;;;;;;20.36;41.56;100832.81;10541907;27;20573;-84
2022/10/27 15:53:16;;;;;;;12.05;2.22;;;;;;;20.00;42.41;100826.63;10568818;28;20198;-84
2022/10/27 15:58:38;;;;;;;6.28;4.47;;;;;;;19.35;43.74;100820.31;10563058;28;20221;-82
2022/10/27 16:04:03;;;;;;;6.20;2.83;;;;;;;19.44;43.99;100814.34;10560781;28;20625;-81
2022/10/27 16:09:36;;;;;;;11.68;5.10;;;;;;;18.85;45.18;100830.06;10538421;28;20568;-82
2022/10/27 16:15:00;;;;;;;9.75;4.20;;;;;;;19.28;44.07;100815.31;10547361;28;20242;-82
2022/10/27 16:20:24;;;;;;;11.32;4.03;;;;;;;19.55;43.36;100812.44;10528216;28;20214;-82
2022/10/27 16:25:48;;;;;;;13.00;3.70;;;;;;;20.00;42.74;100812.31;10515485;28;20218;-82
2022/10/27 16:31:14;;;;;;;11.98;3.35;;;;;;;19.77;42.58;100819.34;10550472;28;20257;-81
2022/10/27 16:36:36;;;;;;;9.10;3.38;;;;;;;19.37;43.71;100815.06;10543327;28;20267;-78
2022/10/27 16:41:59;;;;;;;8.30;3.08;;;;;;;19.81;42.48;100808.75;10546835;28;20229;-81
2022/10/27 16:47:22;;;;;;;9.55;2.28;;;;;;;21.17;40.11;100829.19;10539575;28;20284;-81
2022/10/27 16:52:44;;;;;;;8.75;2.20;;;;;;;21.01;40.54;100853.19;10545460;28;20282;-81
2022/10/27 16:58:06;;;;;;;10.93;3.28;;;;;;;20.55;41.40;100851.88;10515759;28;20249;-80
2022/10/27 17:03:28;;;;;;;7.22;3.00;;;;;;;20.71;40.76;100840.97;10531637;28;20230;-81
2022/10/27 17:08:50;;;;;;;9.63;2.65;;;;;;;20.03;42.34;100827.88;10549725;28;20245;-81
2022/10/27 17:14:12;;;;;;;12.32;3.58;;;;;;;19.56;43.20;100829.25;10537239;28;20311;-81
2022/10/27 17:19:36;;;;;;;12.05;2.80;;;;;;;19.64;43.06;100839.63;10527384;28;20302;-81
2022/10/27 17:24:58;;;;;;;10.23;2.40;;;;;;;20.01;42.55;100851.16;10558385;28;20225;-81
2022/10/27 17:30:20;;;;;;;10.57;2.50;;;;;;;19.61;43.41;100854.66;10544297;28;20286;-81
2022/10/27 17:35:42;;;;;;;8.88;2.83;;;;;;;18.92;45.04;100853.84;10535942;28;20249;-81
2022/10/27 17:41:07;;;;;;;9.07;2.63;;;;;;;19.14;44.57;100846.50;10537825;28;20241;-81
2022/10/27 17:46:29;;;;;;;7.10;2.72;;;;;;;18.87;45.26;100842.75;10530802;28;20579;-80
2022/10/27 17:51:51;;;;;;;12.13;3.03;;;;;;;19.44;44.32;100857.22;10543302;28;20234;-81
2022/10/27 17:57:13;;;;;;;9.15;2.97;;;;;;;19.60;43.71;100867.31;10529343;28;20275;-81
2022/10/27 18:02:36;;;;;;;9.73;3.25;;;;;;;19.31;44.58;100866.00;10547583;28;20233;-81
2022/10/27 18:07:58;;;;;;;7.75;2.67;;;;;;;19.47;44.31;100857.28;10517545;28;20226;-82
2022/10/27 18:13:20;;;;;;;14.55;3.47;;;;;;;19.45;44.60;100868.25;10526708;28;20225;-80
2022/10/27 18:18:42;;;;;;;6.68;2.95;;;;;;;19.22;44.68;100871.16;10544002;28;20613;-80
2022/10/27 18:24:06;;;;;;;8.93;2.88;;;;;;;19.32;44.38;100863.97;10530226;28;20226;-80
2022/10/27 18:29:28;;;;;;;11.35;3.10;;;;;;;19.04;45.54;100858.59;10529955;28;20377;-81
2022/10/27 18:34:51;;;;;;;8.60;2.90;;;;;;;18.75;46.36;100870.66;10553273;28;20633;-80
2022/10/27 18:40:13;;;;;;;7.40;2.70;;;;;;;18.59;46.62;100874.47;10563455;28;20719;-80
2022/10/27 18:45:35;;;;;;;7.40;3.03;;;;;;;18.69;46.61;100864.44;10558166;28;20247;-80
2022/10/27 18:51:03;;;;;;;7.95;3.00;;;;;;;19.27;45.31;100867.13;10543177;28;20222;-80
2022/10/27 18:56:25;;;;;;;6.50;2.70;;;;;;;19.07;45.65;100868.44;10545042;28;20346;-81
2022/10/27 19:01:48;;;;;;;11.45;3.30;;;;;;;19.03;46.11;100866.31;10562696;28;20610;-81
2022/10/27 19:07:10;;;;;;;7.95;3.08;;;;;;;18.29;47.90;100862.81;10550306;28;20230;-81
2022/10/27 19:12:32;;;;;;;8.38;3.13;;;;;;;18.49;47.19;100848.53;10557516;28;20257;-79
2022/10/27 19:17:54;;;;;;;6.72;2.17;;;;;;;18.93;46.05;100849.81;10548263;28;20271;-81
2022/10/27 19:23:16;;;;;;;6.53;2.97;;;;;;;18.59;47.12;100850.78;10560322;28;20221;-80
2022/10/27 19:28:40;;;;;;;6.07;2.63;;;;;;;18.86;46.09;100849.69;10557303;28;20256;-81
2022/10/27 19:34:03;;;;;;;10.70;3.08;;;;;;;18.76;46.63;100852.31;10539105;28;20225;-81
2022/10/27 19:39:07;;;;;;;10.02;2.88;;;;;;;18.55;47.18;100849.88;10574350;28;20212;-81
2022/10/27 19:44:29;;;;;;;9.13;3.08;;;;;;;18.46;47.58;100849.31;10532236;28;20609;-81
2022/10/27 19:49:51;;;;;;;8.73;3.03;;;;;;;18.55;47.35;100852.75;10564682;28;20221;-81
2022/10/27 19:55:13;;;;;;;11.77;3.30;;;;;;;19.46;45.56;100867.06;10557043;28;20249;-81
2022/10/27 20:00:35;;;;;;;10.73;3.08;;;;;;;19.15;45.86;100875.91;10537551;28;20251;-81
2022/10/27 20:05:57;;;;;;;5.93;2.72;;;;;;;18.87;46.71;100868.47;10553411;28;20225;-80
2022/10/27 20:11:21;;;;;;;10.48;3.10;;;;;;;18.77;46.83;100862.53;10558383;28;20597;-81
2022/10/27 20:16:44;;;;;;;9.82;3.10;;;;;;;18.53;47.90;100853.13;10557550;28;20232;-81
2022/10/27 20:22:06;;;;;;;7.93;3.30;;;;;;;18.51;47.95;100855.50;10540719;28;20699;-81
2022/10/27 20:27:28;;;;;;;9.55;3.03;;;;;;;18.22;48.70;100853.28;10558374;28;20261;-81
2022/10/27 20:32:50;;;;;;;11.15;3.50;;;;;;;18.69;47.56;100858.72;10575960;27;20201;-80
2022/10/27 20:38:12;;;;;;;9.80;3.47;;;;;;;18.26;48.63;100848.44;10546969;28;20249;-81
2022/10/27 20:43:34;;;;;;;5.57;3.25;;;;;;;18.10;49.52;100851.38;10510382;28;20222;-80
2022/10/27 20:48:57;;;;;;;10.50;3.17;;;;;;;18.47;48.29;100854.63;10550019;28;20663;-82
2022/10/27 20:54:19;;;;;;;6.82;3.00;;;;;;;18.37;48.64;100854.41;10554505;28;20198;-82
2022/10/27 20:59:41;;;;;;;9.75;3.75;;;;;;;18.20;48.91;100841.41;10554563;28;20270;-82
2022/10/27 21:05:04;;;;;;;11.40;3.38;;;;;;;18.37;49.11;100838.09;10544091;28;20221;-82
2022/10/27 21:10:19;;;;;;;15.48;3.78;;;;;;;18.18;48.61;100830.38;10533880;28;20241;-81
2022/10/27 21:15:41;;;;;;;10.23;3.03;;;;;;;18.48;48.09;100821.22;10541821;28;20254;-83
2022/10/27 21:21:12;;;;;;;7.72;3.40;;;;;;;18.31;48.71;100834.75;10560797;28;20289;-81
2022/10/27 21:26:34;;;;;;;10.40;3.30;;;;;;;18.38;48.62;100833.22;10556407;28;20286;-80
2022/10/27 21:31:57;;;;;;;5.50;2.63;;;;;;;18.59;48.10;100830.81;10553266;28;20220;-81
2022/10/27 21:37:19;;;;;;;13.50;3.50;;;;;;;18.19;49.35;100825.47;10560315;28;20291;-79
2022/10/27 21:42:41;;;;;;;9.98;3.40;;;;;;;18.01;49.70;100824.28;10548608;28;20251;-81
2022/10/27 21:48:02;;;;;;;9.57;3.20;;;;;;;18.33;48.38;100820.94;10556317;28;20222;-80
2022/10/27 21:53:24;;;;;;;10.07;3.40;;;;;;;18.52;48.15;100822.91;10540407;28;20229;-81
2022/10/27 21:58:47;;;;;;;12.43;3.75;;;;;;;18.69;46.79;100818.75;10540612;28;20241;-82
2022/10/27 22:04:09;;;;;;;11.85;3.00;;;;;;;19.45;45.34;100811.09;10551851;28;20229;-80
2022/10/27 22:09:32;;;;;;;11.55;3.00;;;;;;;19.53;45.28;100820.59;10566174;28;20768;-79
2022/10/27 22:14:54;;;;;;;8.80;2.60;;;;;;;19.19;45.71;100811.91;10516728;28;20206;-81
2022/10/27 22:20:16;;;;;;;11.68;3.17;;;;;;;19.22;45.29;100816.03;10555572;28;20788;-81
2022/10/27 22:25:39;;;;;;;18.42;2.75;;;;;;;19.51;44.65;100817.31;10541077;28;20199;-80
2022/10/27 22:31:11;;;;;;;11.65;3.28;;;;;;;19.14;45.36;100806.50;10551093;28;20503;-81
2022/10/27 22:36:34;;;;;;;9.00;2.92;;;;;;;19.36;45.43;100805.66;10575815;28;20270;-81
2022/10/27 22:41:56;;;;;;;7.18;2.90;;;;;;;18.67;46.54;100812.59;10557475;28;20228;-80
2022/10/27 22:47:18;;;;;;;10.10;3.17;;;;;;;19.07;45.30;100812.13;10552422;28;20529;-80
2022/10/27 22:52:40;;;;;;;11.07;2.75;;;;;;;19.24;44.88;100808.72;10542677;28;20256;-81
2022/10/27 22:58:04;;;;;;;11.85;2.80;;;;;;;18.62;46.74;100805.16;10540178;28;20219;-81
2022/10/27 23:03:26;;;;;;;12.73;3.40;;;;;;;18.76;46.06;100793.16;10567543;28;20194;-81
2022/10/27 23:08:53;;;;;;;8.65;2.72;;;;;;;18.41;46.85;100789.66;10553157;28;20266;-81
2022/10/27 23:14:16;;;;;;;10.10;3.10;;;;;;;18.49;46.48;100788.59;10515864;28;20209;-80
2022/10/27 23:19:38;;;;;;;8.10;2.80;;;;;;;18.56;45.99;100783.84;10542471;28;20511;-81
2022/10/27 23:25:00;;;;;;;9.65;2.90;;;;;;;18.47;45.93;100796.72;10531190;28;20199;-81
2022/10/27 23:30:22;;;;;;;10.45;2.90;;;;;;;18.45;45.39;100793.41;10557834;28;20238;-81
2022/10/27 23:35:56;;;;;;;8.55;3.10;;;;;;;18.77;44.79;100788.28;10547615;28;20270;-81
2022/10/27 23:41:18;;;;;;;9.65;2.10;;;;;;;19.10;43.83;100776.25;10559760;27;20491;-81
2022/10/27 23:46:41;;;;;;;8.27;2.45;;;;;;;18.75;44.55;100788.66;10565454;27;20215;-81
2022/10/27 23:52:03;;;;;;;7.40;2.50;;;;;;;18.91;43.88;100783.66;10580683;27;20202;-81
2022/10/27 23:57:25;;;;;;;6.85;2.45;;;;;;;18.75;44.34;100785.81;10530474;28;20287;-81
